Latest Weather Observations for Bulman

IDD60801

Issued at 3:01 pm CST Friday 6 May 2016 (issued every 30 minutes, with the page automatically refreshed every 10 minutes)

About weather observations | Map of weather stations | Latest weather observations for NT | Other Formats
Station Details ID: 014627 Name: BULMAN Lat: -13.67 Lon: 134.34 Height: 103.4 m
Data from the previous 72 hours. | See also: Recent months at Bulman
Date/Time
CST
Temp
°C
App
Temp
°C
Dew
Point
Rel
Hum
%
Delta-T
°C
Wind Press
QNH
hPa
Press
MSL
hPa
Rain
since 9 am
mm
Dir
 
Spd
km/h
Gust
km/h
Spd
kts
Gust
kts
06/03:00pm 33.6 35.4 20.4 46 8.9 ENE 11 20 6 11 1008.5 1007.9 0.0
06/02:30pm 34.7 36.3 19.9 42 9.9 ENE 11 22 6 12 1008.7 1008.1 0.0
06/02:00pm 34.7 35.3 18.7 38 10.5 NNE 13 20 7 11 1009.1 1008.5 0.0
06/01:30pm 34.7 36.1 19.5 40 10.1 NNE 11 20 6 11 1009.8 1009.2 0.0
06/01:00pm 35.0 36.5 20.5 42 9.8 NE 13 26 7 14 1010.4 1009.8 0.0
06/12:30pm 33.6 34.8 20.0 44 9.1 NNE 13 20 7 11 1011.1 1010.5 0.0
06/12:00pm 33.4 34.1 20.5 46 8.7 NE 17 26 9 14 1011.6 1011.0 0.0
06/11:30am 32.8 34.7 21.3 50 7.8 NNE 13 19 7 10 1012.1 1011.5 0.0
06/11:00am 32.9 35.4 21.7 51 7.6 NNE 11 19 6 10 1012.4 1011.8 0.0
06/10:30am 31.3 33.3 21.5 56 6.6 ENE 13 19 7 10 1012.8 1012.3 0.0
06/10:00am 30.9 34.0 22.8 62 5.6 NE 11 19 6 10 1013.0 1012.5 0.0
06/09:30am 30.3 33.5 23.0 65 5.0 NNE 11 19 6 10 1013.0 1012.5 0.0
06/09:00am 29.0 33.2 23.4 72 3.9 ENE 7 11 4 6 1012.6 1012.0 0.0
06/08:30am 27.7 31.8 23.3 77 3.0 ENE 7 11 4 6 1012.5 1011.9 0.0
06/08:00am 26.9 32.5 24.2 85 1.9 SE 2 7 1 4 1012.1 1011.5 0.0
06/07:30am 24.4 30.1 23.7 96 0.5 CALM 0 0 0 0 1011.8 1011.2 0.0
06/07:00am 22.5 27.1 21.8 96 0.5 CALM 0 0 0 0 1011.6 1011.0 0.0
06/06:30am 22.3 26.7 21.3 94 0.7 CALM 0 0 0 0 1011.4 1010.8 0.0
06/06:00am 22.4 26.8 21.4 94 0.7 CALM 0 0 0 0 1011.4 1010.8 0.0
06/05:30am 22.6 27.1 21.6 94 0.7 CALM 0 0 0 0 1011.3 1010.7 0.0
06/05:00am 22.7 27.3 21.7 94 0.7 CALM 0 0 0 0 1010.9 1010.3 0.0
06/04:30am 22.8 27.3 21.6 93 0.8 CALM 0 0 0 0 1010.8 1010.2 0.0
06/04:00am 23.1 27.8 21.9 93 0.8 CALM 0 0 0 0 1010.8 1010.2 0.0
06/03:30am 23.1 27.8 21.9 93 0.8 CALM 0 0 0 0 1010.8 1010.2 0.0
06/03:00am 23.3 27.7 22.1 93 0.8 S 2 6 1 3 1011.0 1010.4 0.0
06/02:30am 23.6 28.3 21.9 90 1.1 CALM 0 0 0 0 1011.0 1010.4 0.0
06/02:00am 23.9 28.7 22.2 90 1.1 CALM 0 0 0 0 1011.3 1010.7 0.0
06/01:30am 24.3 29.0 22.0 87 1.5 CALM 0 0 0 0 1011.7 1011.1 0.0
06/01:00am 24.8 29.7 22.3 86 1.7 CALM 0 0 0 0 1011.9 1011.3 0.0
06/12:30am 25.0 28.6 22.1 84 1.9 NE 6 7 3 4 1012.3 1011.7 0.0
06/12:00am 25.0 28.8 21.7 82 2.2 SSE 4 6 2 3 1012.5 1011.9 0.0
 
Date/Time
CST
Temp
°C
App
Temp
°C
Dew
Point
Rel
Hum
%
Delta-T
°C
Wind Press
QNH
hPa
Press
MSL
hPa
Rain
since 9 am
mm
Dir
 
Spd
km/h
Gust
km/h
Spd
kts
Gust
kts
05/11:30pm 25.7 30.4 22.0 80 2.5 CALM 0 0 0 0 1012.4 1011.8 0.0
05/11:00pm 26.0 29.7 21.4 76 3.1 SE 4 7 2 4 1012.3 1011.7 0.0
05/10:30pm 26.7 29.9 21.2 72 3.7 SSE 6 7 3 4 1012.2 1011.6 0.0
05/10:00pm 27.6 30.4 20.9 67 4.4 ESE 7 9 4 5 1012.1 1011.5 0.0
05/09:30pm 28.2 30.9 20.7 63 5.0 ESE 7 11 4 6 1012.2 1011.6 0.0
05/09:00pm 28.9 30.8 20.6 61 5.5 ESE 11 17 6 9 1012.1 1011.5 0.0
05/08:30pm 29.2 31.8 21.2 62 5.4 E 9 19 5 10 1011.7 1011.1 0.0
05/08:00pm 29.7 32.2 21.1 60 5.8 ENE 9 19 5 10 1011.4 1010.8 0.0
05/07:30pm 29.8 32.4 21.2 60 5.8 ENE 9 13 5 7 1011.0 1010.4 0.0
05/07:00pm 29.9 32.9 21.3 60 5.8 NE 7 13 4 7 1010.7 1010.1 0.0
05/06:30pm 30.5 33.5 21.3 58 6.2 NE 7 11 4 6 1010.3 1009.7 0.0
05/06:00pm 31.1 34.5 21.6 57 6.4 NNE 6 15 3 8 1009.7 1009.1 0.0
05/05:30pm 31.4 36.8 23.2 61 5.7 CALM 0 0 0 0 1009.3 1008.7 0.0
05/05:00pm 31.9 36.5 21.7 54 6.9 CALM 0 4 0 2 1009.2 1008.6 0.0
05/04:30pm 32.6 37.2 22.4 55 7.0 N 2 7 1 4 1009.2 1008.6 0.0
05/04:00pm 33.0 33.8 19.8 45 8.8 SE 15 22 8 12 1009.2 1008.6 0.0
05/03:30pm 35.0 35.0 17.2 34 11.5 ESE 13 24 7 13 1009.1 1008.5 0.0
05/03:20pm 39.7 41.1 20.4 32 13.1 ESE 13 22 7 12 1009.1 1008.5 0.0
05/03:18pm 45.7 51.1 27.1 35 13.8 ESE 13 22 7 12 1009.2 1008.6 0.0
05/03:00pm 35.0 36.2 19.0 39 10.6 ESE 11 19 6 10 1009.3 1008.7 0.0
05/02:30pm 35.3 36.7 19.6 39 10.5 ENE 11 17 6 9 1009.6 1009.0 0.0
05/02:00pm 34.8 34.6 17.5 35 11.2 E 15 22 8 12 1010.0 1009.4 0.0
05/01:30pm 34.2 34.3 17.4 36 10.8 ENE 13 22 7 12 1010.6 1010.0 0.0
05/01:00pm 35.5 35.3 18.6 37 11.1 ENE 17 30 9 16 1011.1 1010.5 0.0
05/12:30pm 34.7 34.4 18.3 38 10.7 E 17 24 9 13 1011.7 1011.1 0.0
05/12:00pm 34.7 36.4 21.0 44 9.3 NNE 13 22 7 12 1012.2 1011.6 0.0
05/11:30am 31.9 33.8 20.5 51 7.6 NNE 11 20 6 11 1012.8 1012.3 0.0
05/11:00am 31.9 35.8 22.6 58 6.4 NNE 6 9 3 5 1013.3 1012.8 0.0
05/10:30am 30.9 34.4 22.8 62 5.6 NNE 9 15 5 8 1013.5 1013.0 0.0
05/10:00am 31.2 34.5 22.5 60 6.0 NNE 9 19 5 10 1013.8 1013.3 0.0
05/09:30am 29.7 33.8 23.2 68 4.5 NNE 7 11 4 6 1013.8 1013.3 0.0
05/09:00am 28.6 32.3 23.3 73 3.6 NE 9 13 5 7 1013.7 1013.2 0.0
05/08:30am 27.8 32.2 23.4 77 3.0 NNE 6 9 3 5 1013.3 1012.8 0.0
05/08:00am 26.1 30.3 23.4 85 1.8 ENE 7 11 4 6 1013.2 1012.7 0.0
05/07:30am 23.9 29.2 23.0 95 0.6 CALM 0 0 0 0 1013.0 1012.5 0.0
05/07:00am 22.8 27.6 22.1 96 0.5 CALM 0 0 0 0 1012.8 1012.3 0.0
05/06:30am 22.7 27.0 21.9 95 0.5 SSW 2 6 1 3 1012.4 1011.8 0.0
05/06:00am 22.8 26.8 22.1 96 0.5 SW 4 7 2 4 1012.3 1011.7 0.0
05/05:30am 22.8 27.5 22.0 95 0.5 CALM 0 0 0 0 1012.3 1011.7 0.0
05/05:00am 23.0 27.8 22.2 95 0.5 CALM 0 0 0 0 1012.4 1011.8 0.0
05/04:30am 23.2 28.1 22.4 95 0.5 CALM 0 0 0 0 1012.2 1011.6 0.0
05/04:00am 23.3 28.2 22.3 94 0.7 CALM 0 0 0 0 1012.1 1011.5 0.0
05/03:30am 23.5 28.5 22.5 94 0.7 CALM 0 0 0 0 1012.1 1011.5 0.0
05/03:00am 23.5 28.5 22.5 94 0.7 CALM 0 0 0 0 1012.2 1011.6 0.0
05/02:30am 23.7 28.8 22.7 94 0.7 CALM 0 0 0 0 1012.5 1011.9 0.0
05/02:00am 23.7 28.8 22.7 94 0.7 CALM 0 0 0 0 1012.6 1012.0 0.0
05/01:30am 23.9 29.0 22.7 93 0.8 CALM 0 0 0 0 1012.8 1012.3 0.0
05/01:00am 24.2 29.4 22.8 92 0.9 CALM 0 0 0 0 1013.1 1012.6 0.0
05/12:30am 24.2 29.3 22.6 91 1.1 CALM 0 0 0 0 1013.2 1012.7 0.0
05/12:00am 24.4 29.4 22.5 89 1.3 CALM 0 0 0 0 1013.3 1012.8 0.0
 
Date/Time
CST
Temp
°C
App
Temp
°C
Dew
Point
Rel
Hum
%
Delta-T
°C
Wind Press
QNH
hPa
Press
MSL
hPa
Rain
since 9 am
mm
Dir
 
Spd
km/h
Gust
km/h
Spd
kts
Gust
kts
04/11:30pm 24.4 29.5 22.7 90 1.1 CALM 0 0 0 0 1013.4 1012.9 0.0
04/11:00pm 24.2 29.3 22.6 91 1.1 CALM 0 0 0 0 1013.6 1013.1 0.0
04/10:30pm 24.5 29.6 22.6 89 1.3 CALM 0 0 0 0 1013.6 1013.1 0.0
04/10:00pm 24.9 29.8 22.4 86 1.7 CALM 0 0 0 0 1013.7 1013.2 0.0
04/09:30pm 25.1 29.9 22.2 84 1.9 CALM 0 0 0 0 1013.5 1013.0 0.0
04/09:00pm 25.5 30.2 22.0 81 2.3 CALM 0 0 0 0 1013.4 1012.9 0.0
04/08:30pm 26.1 30.7 21.7 77 2.9 CALM 0 0 0 0 1013.3 1012.8 0.0
04/08:00pm 26.4 30.8 21.4 74 3.3 CALM 0 2 0 1 1013.1 1012.6 0.0
04/07:30pm 26.1 30.8 22.0 78 2.8 CALM 0 0 0 0 1012.7 1012.2 0.0
04/07:00pm 25.9 29.2 21.8 78 2.7 NNW 7 13 4 7 1011.8 1011.2 0.0
04/06:30pm 26.3 29.7 21.7 76 3.1 NE 6 9 3 5 1011.9 1011.3 0.0
04/06:00pm 26.9 28.5 20.7 69 4.1 NNE 13 26 7 14 1011.5 1010.9 0.0
04/05:30pm 31.1 32.1 19.4 49 7.7 E 13 24 7 13 1010.3 1009.7 0.0
04/05:00pm 33.8 35.0 19.8 43 9.3 ESE 13 20 7 11 1009.7 1009.1 0.0
04/04:30pm 34.4 35.5 18.8 39 10.3 ESE 11 20 6 11 1009.4 1008.8 0.0
04/04:00pm 34.4 34.9 18.4 38 10.5 ESE 13 22 7 12 1009.4 1008.8 0.0
04/03:30pm 34.8 35.3 20.0 42 9.9 ESE 17 28 9 15 1009.4 1008.8 0.0
04/03:00pm 34.6 34.3 18.2 37 10.7 SE 17 22 9 12 1009.7 1009.1 0.0
04/02:30pm 33.9 34.4 18.4 40 10.1 ESE 13 20 7 11 1010.2 1009.6 0.0
04/02:00pm 32.1 32.6 20.0 48 8.0 ESE 17 28 9 15 1010.7 1010.1 0.0
04/01:30pm 32.2 33.4 21.4 53 7.3 ESE 17 30 9 16 1011.2 1010.6 0.0
04/01:00pm 34.3 35.9 20.7 45 9.2 NE 13 22 7 12 1011.3 1010.7 0.0
04/12:30pm 34.1 36.1 21.5 47 8.6 E 13 24 7 13 1011.8 1011.2 0.0
04/12:00pm 34.3 35.9 21.4 47 8.8 NE 15 24 8 13 1012.4 1011.8 0.0
04/11:30am 34.0 36.9 22.4 50 8.0 NNE 11 19 6 10 1013.0 1012.5 0.0
04/11:00am 32.6 35.3 23.5 58 6.3 E 15 20 8 11 1013.8 1013.3 0.0
04/10:30am 32.0 35.0 23.3 60 6.0 NE 13 19 7 10 1014.3 1013.8 0.0
04/10:00am 30.8 34.3 22.9 62 5.4 NNE 9 13 5 7 1014.5 1014.0 0.0
04/09:30am 30.2 34.6 24.4 71 4.1 NE 9 13 5 7 1014.5 1014.0 0.0
04/09:00am 29.2 33.9 24.3 75 3.4 NE 7 11 4 6 1014.1 1013.6 0.0
04/08:30am 28.1 32.6 23.9 78 2.9 NNE 7 9 4 5 1013.7 1013.2 0.0
04/08:00am 26.3 31.0 24.0 87 1.6 N 6 11 3 6 1013.4 1012.9 0.0
04/07:30am 25.2 30.8 24.2 94 0.7 N 2 7 1 4 1013.3 1012.8 0.0
04/07:00am 24.6 30.3 23.7 95 0.6 CALM 0 0 0 0 1013.0 1012.5 0.0
04/06:30am 24.3 29.8 23.4 95 0.6 CALM 0 0 0 0 1012.7 1012.2 0.0
04/06:00am 24.2 29.6 23.3 95 0.6 CALM 0 6 0 3 1012.4 1011.8 0.0
04/05:30am 24.3 29.7 23.3 94 0.7 CALM 0 0 0 0 1011.9 1011.3 0.0
04/05:00am 24.4 29.8 23.2 93 0.8 CALM 0 0 0 0 1011.7 1011.1 0.0
04/04:30am 24.4 29.9 23.4 94 0.7 CALM 0 0 0 0 1011.5 1010.9 0.0
04/04:00am 24.7 30.3 23.5 93 0.8 CALM 0 0 0 0 1011.6 1011.0 0.0
04/03:30am 24.7 29.9 23.5 93 0.8 NE 2 6 1 3 1011.9 1011.3 0.0
04/03:00am 24.7 29.4 23.3 92 1.0 NNE 4 7 2 4 1012.2 1011.6 0.0
04/02:30am 24.8 30.2 23.2 91 1.1 CALM 0 0 0 0 1012.4 1011.8 0.0
04/02:00am 25.1 30.5 23.3 90 1.2 CALM 0 0 0 0 1012.5 1011.9 0.0
04/01:30am 25.3 30.7 23.2 88 1.4 CALM 0 0 0 0 1012.8 1012.3 0.0
04/01:00am 25.8 31.4 23.5 87 1.6 CALM 0 0 0 0 1012.9 1012.4 0.0
04/12:30am 25.9 31.4 23.4 86 1.7 CALM 0 0 0 0 1013.2 1012.7 0.0
04/12:00am 26.1 31.5 23.2 84 2.0 CALM 0 0 0 0 1013.4 1012.9 0.0
 
Date/Time
CST
Temp
°C
App
Temp
°C
Dew
Point
Rel
Hum
%
Delta-T
°C
Wind Press
QNH
hPa
Press
MSL
hPa
Rain
since 9 am
mm
Dir
 
Spd
km/h
Gust
km/h
Spd
kts
Gust
kts
03/11:30pm 26.4 31.8 23.3 83 2.1 CALM 0 0 0 0 1013.3 1012.8 0.0
03/11:00pm 27.0 32.3 23.0 79 2.7 CALM 0 0 0 0 1013.6 1013.1 0.0
03/10:30pm 28.0 32.0 22.7 73 3.6 NE 6 9 3 5 1013.6 1013.1 0.0
03/10:00pm 28.1 32.0 23.0 74 3.5 E 7 9 4 5 1013.6 1013.1 0.0
03/09:30pm 27.8 33.3 23.4 77 3.0 CALM 0 6 0 3 1013.6 1013.1 0.0
03/09:00pm 28.2 33.8 23.6 76 3.2 CALM 0 0 0 0 1013.3 1012.8 0.0
03/08:30pm 28.3 34.2 24.1 78 2.9 CALM 0 0 0 0 1012.8 1012.3 0.0
03/08:00pm 28.6 33.9 23.1 72 3.8 CALM 0 0 0 0 1012.5 1011.9 0.0
03/07:30pm 29.4 33.6 22.4 66 4.8 NNE 4 7 2 4 1011.8 1011.2 0.0
03/07:00pm 29.6 33.3 22.3 65 5.0 NNE 6 9 3 5 1011.4 1010.8 0.0
03/06:30pm 29.8 33.8 22.0 63 5.3 ENE 4 9 2 5 1011.0 1010.4 0.0
03/06:00pm 30.9 33.1 20.5 54 6.9 ESE 9 19 5 10 1010.5 1009.9 0.0
03/05:30pm 33.0 35.8 20.5 47 8.4 ENE 6 7 3 4 1010.1 1009.5 0.0
03/05:00pm 33.6 35.5 19.7 44 9.2 ENE 9 15 5 8 1009.7 1009.1 0.0
03/04:30pm 33.2 34.7 18.9 42 9.4 E 9 15 5 8 1009.6 1009.0 0.0
03/04:00pm 33.7 35.2 19.7 43 9.3 E 11 17 6 9 1009.4 1008.8 0.0
03/03:30pm 34.7 37.0 19.9 42 9.9 NNE 7 15 4 8 1009.4 1008.8 0.0

Other Formats:

Comma delimited format used in spreadsheet applications
http://www.bom.gov.au/fwo/IDD60801/IDD60801.94143.axf

JavaScript Object Notation format (JSON) in row-major order
http://www.bom.gov.au/fwo/IDD60801/IDD60801.94143.json